YACS weather

Acacia Downs Airport
New South Wales, Australia

Public forecast

Using degrees Celsius for public forecast. Weather courtesy of forecast.io.

METAR (pilot weather report)

Closest report is Broken Hill Airport, 41.4 nm (76.6 km) SSW. Retrieved 2019/03/26 04:00 UTC (9 minutes ago):

YBHI 260400Z AUTO 18009KT 9999 // NCD 20/04 Q1021

TAF (pilot weather forecast)

Forecast is more than 12 hours old.

Closest forecast is Whyalla Airport, 243.6 nm (451.1 km) WSW. Retrieved 2018/11/15 18:03 UTC (4 months ago):

TAF YWHA 151701Z 1518/1608 VRB05KT CAVOK FM152300 18012KT CAVOK FM160200 18018KT CAVOK